DFOO

Bobo Dioulasso Airport

Bobo Dioulasso, Burkina Faso
METAR DFOO 211500Z 06004KT 9999 FEW020 37/18 Q1009
Observed Flight Rules
Apr-21 @ 15:00 UTC (39 minutes ago) Visual Flight Rules
Wind Visibility Clouds
60° at 4 knots 10,000+ meters
  • Few at 2,000' AGL
Temperatures Readings
Current 37°C / 99°F
Dewpoint 18°C / 64°F
Humidity 33%
Altimeter 29.79" Hg
Pressure 1009 hPa
Elevation 460
METAR DFOO 211500Z 06004KT 9999 FEW020 37/18 Q1009
Observed Flight Rules
Apr-21 @ 15:00 UTC
(39 minutes ago)
VFR
Wind Visibility
60° at 4 knots 10,000+ meters
Clouds
  • Few at 2,000' AGL
Temperature Dewpoint
37°C / 99°F 18°C / 64°F
Humidity Altimeter Pressure
33% 29.79" Hg 1009 hPa